sensor_id;sensor_type;location;lat;lon;timestamp;temperature;humidity
51579;DHT22;47998;53.242;6.386;2023-07-29T00:00:42;17.60;99.90
51579;DHT22;47998;53.242;6.386;2023-07-29T00:03:09;17.60;99.90
51579;DHT22;47998;53.242;6.386;2023-07-29T00:05:36;17.70;99.90
51579;DHT22;47998;53.242;6.386;2023-07-29T00:08:02;17.70;99.90
51579;DHT22;47998;53.242;6.386;2023-07-29T00:10:28;17.70;99.90
51579;DHT22;47998;53.242;6.386;2023-07-29T00:12:54;17.70;99.90
51579;DHT22;47998;53.242;6.386;2023-07-29T00:15:19;17.70;99.90
51579;DHT22;47998;53.242;6.386;2023-07-29T00:17:45;17.70;99.90
51579;DHT22;47998;53.242;6.386;2023-07-29T00:20:11;17.80;99.90
51579;DHT22;47998;53.242;6.386;2023-07-29T00:22:36;17.80;99.90
51579;DHT22;47998;53.242;6.386;2023-07-29T00:25:02;17.70;99.90
51579;DHT22;47998;53.242;6.386;2023-07-29T00:27:28;17.70;99.90
51579;DHT22;47998;53.242;6.386;2023-07-29T00:29:54;17.70;99.90
51579;DHT22;47998;53.242;6.386;2023-07-29T00:32:19;17.70;99.90
51579;DHT22;47998;53.242;6.386;2023-07-29T00:34:45;17.70;99.90
51579;DHT22;47998;53.242;6.386;2023-07-29T00:37:11;17.70;99.90
51579;DHT22;47998;53.242;6.386;2023-07-29T00:39:37;17.70;99.90
51579;DHT22;47998;53.242;6.386;2023-07-29T00:42:04;17.70;99.90
51579;DHT22;47998;53.242;6.386;2023-07-29T00:44:31;17.60;99.90
51579;DHT22;47998;53.242;6.386;2023-07-29T00:47:02;17.60;99.90
51579;DHT22;47998;53.242;6.386;2023-07-29T00:49:28;17.60;99.90
51579;DHT22;47998;53.242;6.386;2023-07-29T00:51:54;17.60;99.90
51579;DHT22;47998;53.242;6.386;2023-07-29T00:54:20;17.60;99.90
51579;DHT22;47998;53.242;6.386;2023-07-29T00:56:46;17.60;99.90
51579;DHT22;47998;53.242;6.386;2023-07-29T00:59:12;17.50;99.90
51579;DHT22;47998;53.242;6.386;2023-07-29T01:01:38;17.50;99.90
51579;DHT22;47998;53.242;6.386;2023-07-29T01:04:04;17.60;99.90
51579;DHT22;47998;53.242;6.386;2023-07-29T01:09:23;17.50;99.90
51579;DHT22;47998;53.242;6.386;2023-07-29T01:12:20;17.50;99.90
51579;DHT22;47998;53.242;6.386;2023-07-29T01:15:04;17.50;99.90
51579;DHT22;47998;53.242;6.386;2023-07-29T01:17:38;17.50;99.90
51579;DHT22;47998;53.242;6.386;2023-07-29T01:20:07;17.40;99.90
51579;DHT22;47998;53.242;6.386;2023-07-29T01:22:37;17.40;99.90
51579;DHT22;47998;53.242;6.386;2023-07-29T01:25:03;17.40;99.90
51579;DHT22;47998;53.242;6.386;2023-07-29T01:27:29;17.30;99.90
51579;DHT22;47998;53.242;6.386;2023-07-29T01:29:56;17.20;99.90
51579;DHT22;47998;53.242;6.386;2023-07-29T01:35:00;17.20;99.90
51579;DHT22;47998;53.242;6.386;2023-07-29T01:37:31;17.10;99.90
51579;DHT22;47998;53.242;6.386;2023-07-29T01:39:59;17.00;99.90
51579;DHT22;47998;53.242;6.386;2023-07-29T01:42:25;16.90;99.90
51579;DHT22;47998;53.242;6.386;2023-07-29T01:44:52;16.80;99.90
51579;DHT22;47998;53.242;6.386;2023-07-29T01:47:18;16.80;99.90
51579;DHT22;47998;53.242;6.386;2023-07-29T01:49:44;16.70;99.90
51579;DHT22;47998;53.242;6.386;2023-07-29T01:52:09;16.70;99.90
51579;DHT22;47998;53.242;6.386;2023-07-29T01:54:35;16.60;99.90
51579;DHT22;47998;53.242;6.386;2023-07-29T01:57:01;16.60;99.90
51579;DHT22;47998;53.242;6.386;2023-07-29T01:59:27;16.50;99.90
51579;DHT22;47998;53.242;6.386;2023-07-29T02:01:52;16.50;99.90
51579;DHT22;47998;53.242;6.386;2023-07-29T02:04:18;16.50;99.90
51579;DHT22;47998;53.242;6.386;2023-07-29T02:06:44;16.50;99.90
51579;DHT22;47998;53.242;6.386;2023-07-29T02:09:09;16.40;99.90
51579;DHT22;47998;53.242;6.386;2023-07-29T02:11:35;16.40;99.90
51579;DHT22;47998;53.242;6.386;2023-07-29T02:14:01;16.40;99.90
51579;DHT22;47998;53.242;6.386;2023-07-29T02:16:26;16.40;99.90
51579;DHT22;47998;53.242;6.386;2023-07-29T02:18:52;16.30;99.90
51579;DHT22;47998;53.242;6.386;2023-07-29T02:21:18;16.40;99.90
51579;DHT22;47998;53.242;6.386;2023-07-29T02:23:43;16.40;99.90
51579;DHT22;47998;53.242;6.386;2023-07-29T02:26:09;16.40;99.90
51579;DHT22;47998;53.242;6.386;2023-07-29T02:28:36;16.40;99.90
51579;DHT22;47998;53.242;6.386;2023-07-29T02:31:21;16.40;99.90
51579;DHT22;47998;53.242;6.386;2023-07-29T02:33:47;16.40;99.90
51579;DHT22;47998;53.242;6.386;2023-07-29T02:36:13;16.40;99.90
51579;DHT22;47998;53.242;6.386;2023-07-29T02:38:40;16.40;99.90
51579;DHT22;47998;53.242;6.386;2023-07-29T02:41:06;16.40;99.90
51579;DHT22;47998;53.242;6.386;2023-07-29T02:43:32;16.40;99.90
51579;DHT22;47998;53.242;6.386;2023-07-29T02:45:57;16.30;99.90
51579;DHT22;47998;53.242;6.386;2023-07-29T02:48:25;16.30;99.90
51579;DHT22;47998;53.242;6.386;2023-07-29T02:50:51;16.30;99.90
51579;DHT22;47998;53.242;6.386;2023-07-29T02:53:17;16.30;99.90
51579;DHT22;47998;53.242;6.386;2023-07-29T02:55:43;16.20;99.90
51579;DHT22;47998;53.242;6.386;2023-07-29T02:58:08;16.30;99.90
51579;DHT22;47998;53.242;6.386;2023-07-29T03:00:34;16.20;99.90
51579;DHT22;47998;53.242;6.386;2023-07-29T03:03:01;16.20;99.90
51579;DHT22;47998;53.242;6.386;2023-07-29T03:05:29;16.10;99.90
51579;DHT22;47998;53.242;6.386;2023-07-29T03:07:55;16.10;99.90
51579;DHT22;47998;53.242;6.386;2023-07-29T03:10:21;16.00;99.90
51579;DHT22;47998;53.242;6.386;2023-07-29T03:12:47;16.00;99.90
51579;DHT22;47998;53.242;6.386;2023-07-29T03:15:13;15.90;99.90
51579;DHT22;47998;53.242;6.386;2023-07-29T03:17:39;15.80;99.90
51579;DHT22;47998;53.242;6.386;2023-07-29T03:20:05;15.80;99.90
51579;DHT22;47998;53.242;6.386;2023-07-29T03:22:31;15.70;99.90
51579;DHT22;47998;53.242;6.386;2023-07-29T03:24:56;15.60;99.90
51579;DHT22;47998;53.242;6.386;2023-07-29T03:27:22;15.60;99.90
51579;DHT22;47998;53.242;6.386;2023-07-29T03:29:48;15.50;99.90
51579;DHT22;47998;53.242;6.386;2023-07-29T03:32:14;15.40;99.90
51579;DHT22;47998;53.242;6.386;2023-07-29T03:34:40;15.40;99.90
51579;DHT22;47998;53.242;6.386;2023-07-29T03:37:06;15.30;99.90
51579;DHT22;47998;53.242;6.386;2023-07-29T03:39:32;15.20;99.90
51579;DHT22;47998;53.242;6.386;2023-07-29T03:41:58;15.20;99.90
51579;DHT22;47998;53.242;6.386;2023-07-29T03:44:23;15.20;99.90
51579;DHT22;47998;53.242;6.386;2023-07-29T03:46:49;15.20;99.90
51579;DHT22;47998;53.242;6.386;2023-07-29T03:49:15;15.10;99.90
51579;DHT22;47998;53.242;6.386;2023-07-29T03:51:41;15.00;99.90
51579;DHT22;47998;53.242;6.386;2023-07-29T03:54:06;15.00;99.90
51579;DHT22;47998;53.242;6.386;2023-07-29T03:56:32;15.00;99.90
51579;DHT22;47998;53.242;6.386;2023-07-29T03:59:07;15.00;99.90
51579;DHT22;47998;53.242;6.386;2023-07-29T04:01:33;15.00;99.90
51579;DHT22;47998;53.242;6.386;2023-07-29T04:03:59;15.00;99.90
51579;DHT22;47998;53.242;6.386;2023-07-29T04:06:25;15.00;99.90
51579;DHT22;47998;53.242;6.386;2023-07-29T04:08:50;15.00;99.90
51579;DHT22;47998;53.242;6.386;2023-07-29T04:11:16;15.00;99.90
51579;DHT22;47998;53.242;6.386;2023-07-29T04:13:42;15.00;99.90
51579;DHT22;47998;53.242;6.386;2023-07-29T04:16:08;15.00;99.90
51579;DHT22;47998;53.242;6.386;2023-07-29T04:18:33;15.10;99.90
51579;DHT22;47998;53.242;6.386;2023-07-29T04:20:59;15.10;99.90
51579;DHT22;47998;53.242;6.386;2023-07-29T04:23:25;15.20;99.90
51579;DHT22;47998;53.242;6.386;2023-07-29T04:25:50;15.30;99.90
51579;DHT22;47998;53.242;6.386;2023-07-29T04:28:17;15.30;99.90
51579;DHT22;47998;53.242;6.386;2023-07-29T04:30:42;15.40;99.90
51579;DHT22;47998;53.242;6.386;2023-07-29T04:33:08;15.40;99.90
51579;DHT22;47998;53.242;6.386;2023-07-29T04:35:34;15.50;99.90
51579;DHT22;47998;53.242;6.386;2023-07-29T04:38:00;15.50;99.90
51579;DHT22;47998;53.242;6.386;2023-07-29T04:40:25;15.50;99.90
51579;DHT22;47998;53.242;6.386;2023-07-29T04:42:51;15.50;99.90
51579;DHT22;47998;53.242;6.386;2023-07-29T04:45:17;15.60;99.90
51579;DHT22;47998;53.242;6.386;2023-07-29T04:47:43;15.60;99.90
51579;DHT22;47998;53.242;6.386;2023-07-29T04:50:09;15.80;99.90
51579;DHT22;47998;53.242;6.386;2023-07-29T04:52:34;15.80;99.90
51579;DHT22;47998;53.242;6.386;2023-07-29T04:55:00;15.90;99.90
51579;DHT22;47998;53.242;6.386;2023-07-29T04:57:26;15.90;99.90
51579;DHT22;47998;53.242;6.386;2023-07-29T04:59:52;16.00;99.90
51579;DHT22;47998;53.242;6.386;2023-07-29T05:02:17;16.00;99.90
51579;DHT22;47998;53.242;6.386;2023-07-29T05:04:43;16.10;99.90
51579;DHT22;47998;53.242;6.386;2023-07-29T05:07:09;16.10;99.90
51579;DHT22;47998;53.242;6.386;2023-07-29T05:09:34;16.10;99.90
51579;DHT22;47998;53.242;6.386;2023-07-29T05:12:00;16.20;99.90
51579;DHT22;47998;53.242;6.386;2023-07-29T05:14:26;16.20;99.90
51579;DHT22;47998;53.242;6.386;2023-07-29T05:16:51;16.30;99.90
51579;DHT22;47998;53.242;6.386;2023-07-29T05:19:17;16.30;99.90
51579;DHT22;47998;53.242;6.386;2023-07-29T05:21:43;16.40;99.90
51579;DHT22;47998;53.242;6.386;2023-07-29T05:24:09;16.40;99.90
51579;DHT22;47998;53.242;6.386;2023-07-29T05:26:35;16.50;99.90
51579;DHT22;47998;53.242;6.386;2023-07-29T05:29:00;16.50;99.90
51579;DHT22;47998;53.242;6.386;2023-07-29T05:31:26;16.60;99.90
51579;DHT22;47998;53.242;6.386;2023-07-29T05:33:53;16.60;99.90
51579;DHT22;47998;53.242;6.386;2023-07-29T05:36:18;16.60;99.90
51579;DHT22;47998;53.242;6.386;2023-07-29T05:38:44;16.60;99.90
51579;DHT22;47998;53.242;6.386;2023-07-29T05:41:10;16.70;99.90
51579;DHT22;47998;53.242;6.386;2023-07-29T05:43:36;16.70;99.90
51579;DHT22;47998;53.242;6.386;2023-07-29T05:46:02;16.70;99.90
51579;DHT22;47998;53.242;6.386;2023-07-29T05:48:28;16.80;99.90
51579;DHT22;47998;53.242;6.386;2023-07-29T05:50:53;16.80;99.90
51579;DHT22;47998;53.242;6.386;2023-07-29T05:53:19;16.80;99.90
51579;DHT22;47998;53.242;6.386;2023-07-29T05:55:45;16.80;99.90
51579;DHT22;47998;53.242;6.386;2023-07-29T05:58:11;16.90;99.90
51579;DHT22;47998;53.242;6.386;2023-07-29T06:00:36;16.90;99.90
51579;DHT22;47998;53.242;6.386;2023-07-29T06:03:02;16.90;99.90
51579;DHT22;47998;53.242;6.386;2023-07-29T06:05:28;17.00;99.90
51579;DHT22;47998;53.242;6.386;2023-07-29T06:07:53;17.00;99.90
51579;DHT22;47998;53.242;6.386;2023-07-29T06:10:19;17.00;99.90
51579;DHT22;47998;53.242;6.386;2023-07-29T06:12:45;17.10;99.90
51579;DHT22;47998;53.242;6.386;2023-07-29T06:15:11;17.10;99.90
51579;DHT22;47998;53.242;6.386;2023-07-29T06:17:38;17.20;99.90
51579;DHT22;47998;53.242;6.386;2023-07-29T06:20:04;17.20;99.90
51579;DHT22;47998;53.242;6.386;2023-07-29T06:22:31;17.30;99.90
51579;DHT22;47998;53.242;6.386;2023-07-29T06:24:57;17.40;99.90
51579;DHT22;47998;53.242;6.386;2023-07-29T06:27:23;17.80;99.90
51579;DHT22;47998;53.242;6.386;2023-07-29T06:29:50;18.40;99.90
51579;DHT22;47998;53.242;6.386;2023-07-29T06:32:16;18.90;99.90
51579;DHT22;47998;53.242;6.386;2023-07-29T06:34:41;19.10;99.90
51579;DHT22;47998;53.242;6.386;2023-07-29T06:37:07;19.70;99.90
51579;DHT22;47998;53.242;6.386;2023-07-29T06:39:33;19.70;99.90
51579;DHT22;47998;53.242;6.386;2023-07-29T06:41:58;19.20;99.90
51579;DHT22;47998;53.242;6.386;2023-07-29T06:44:24;19.00;99.90
51579;DHT22;47998;53.242;6.386;2023-07-29T06:46:50;18.90;99.90
51579;DHT22;47998;53.242;6.386;2023-07-29T06:49:15;18.70;99.90
51579;DHT22;47998;53.242;6.386;2023-07-29T06:51:41;18.50;99.90
51579;DHT22;47998;53.242;6.386;2023-07-29T06:54:07;18.60;99.90
51579;DHT22;47998;53.242;6.386;2023-07-29T06:56:33;18.60;99.90
51579;DHT22;47998;53.242;6.386;2023-07-29T06:58:58;18.50;99.90
51579;DHT22;47998;53.242;6.386;2023-07-29T07:01:24;18.50;99.90
51579;DHT22;47998;53.242;6.386;2023-07-29T07:03:50;18.50;99.90
51579;DHT22;47998;53.242;6.386;2023-07-29T07:06:15;18.60;99.90
51579;DHT22;47998;53.242;6.386;2023-07-29T07:08:41;18.60;99.90
51579;DHT22;47998;53.242;6.386;2023-07-29T07:11:07;18.80;99.90
51579;DHT22;47998;53.242;6.386;2023-07-29T07:13:33;18.90;99.90
51579;DHT22;47998;53.242;6.386;2023-07-29T07:15:59;18.90;99.90
51579;DHT22;47998;53.242;6.386;2023-07-29T07:18:24;18.90;99.90
51579;DHT22;47998;53.242;6.386;2023-07-29T07:20:50;18.90;99.90
51579;DHT22;47998;53.242;6.386;2023-07-29T07:23:17;18.90;99.90
51579;DHT22;47998;53.242;6.386;2023-07-29T07:25:43;18.80;99.90
51579;DHT22;47998;53.242;6.386;2023-07-29T07:28:09;18.70;99.90
51579;DHT22;47998;53.242;6.386;2023-07-29T07:30:39;18.70;99.90
51579;DHT22;47998;53.242;6.386;2023-07-29T07:33:04;18.70;99.90
51579;DHT22;47998;53.242;6.386;2023-07-29T07:35:30;18.70;99.90
51579;DHT22;47998;53.242;6.386;2023-07-29T07:37:56;18.70;99.90
51579;DHT22;47998;53.242;6.386;2023-07-29T07:40:21;18.80;99.90
51579;DHT22;47998;53.242;6.386;2023-07-29T07:42:47;18.90;99.90
51579;DHT22;47998;53.242;6.386;2023-07-29T07:45:13;18.90;99.90
51579;DHT22;47998;53.242;6.386;2023-07-29T07:47:39;19.00;99.90
51579;DHT22;47998;53.242;6.386;2023-07-29T07:50:04;19.10;99.90
51579;DHT22;47998;53.242;6.386;2023-07-29T07:52:30;19.30;99.90
51579;DHT22;47998;53.242;6.386;2023-07-29T07:54:56;19.50;99.90
51579;DHT22;47998;53.242;6.386;2023-07-29T07:57:22;19.60;99.90
51579;DHT22;47998;53.242;6.386;2023-07-29T07:59:48;20.10;99.90
51579;DHT22;47998;53.242;6.386;2023-07-29T08:02:14;20.20;99.90
51579;DHT22;47998;53.242;6.386;2023-07-29T08:04:39;20.10;38.50
51579;DHT22;47998;53.242;6.386;2023-07-29T08:07:05;20.60;10.20
51579;DHT22;47998;53.242;6.386;2023-07-29T08:09:31;20.60;1.00
51579;DHT22;47998;53.242;6.386;2023-07-29T08:11:57;20.50;1.00
51579;DHT22;47998;53.242;6.386;2023-07-29T08:14:22;20.50;1.00
51579;DHT22;47998;53.242;6.386;2023-07-29T08:16:48;20.30;1.00
51579;DHT22;47998;53.242;6.386;2023-07-29T08:19:14;20.30;1.00
51579;DHT22;47998;53.242;6.386;2023-07-29T08:21:39;20.50;1.00
51579;DHT22;47998;53.242;6.386;2023-07-29T08:24:05;20.30;1.00
51579;DHT22;47998;53.242;6.386;2023-07-29T08:26:32;20.20;1.00
51579;DHT22;47998;53.242;6.386;2023-07-29T08:28:58;20.20;1.00
51579;DHT22;47998;53.242;6.386;2023-07-29T08:31:24;20.30;1.00
51579;DHT22;47998;53.242;6.386;2023-07-29T08:33:50;20.50;1.00
51579;DHT22;47998;53.242;6.386;2023-07-29T08:36:16;20.50;1.00
51579;DHT22;47998;53.242;6.386;2023-07-29T08:38:41;21.00;1.00
51579;DHT22;47998;53.242;6.386;2023-07-29T08:44:30;21.10;99.90
51579;DHT22;47998;53.242;6.386;2023-07-29T08:46:30;21.70;99.90
51579;DHT22;47998;53.242;6.386;2023-07-29T08:48:56;21.90;99.90
51579;DHT22;47998;53.242;6.386;2023-07-29T08:51:23;22.10;99.90
51579;DHT22;47998;53.242;6.386;2023-07-29T08:53:49;21.90;99.90
51579;DHT22;47998;53.242;6.386;2023-07-29T08:56:16;21.40;1.00
51579;DHT22;47998;53.242;6.386;2023-07-29T08:58:42;21.10;1.00
51579;DHT22;47998;53.242;6.386;2023-07-29T09:01:08;20.90;56.80
51579;DHT22;47998;53.242;6.386;2023-07-29T09:03:34;20.70;99.90
51579;DHT22;47998;53.242;6.386;2023-07-29T09:06:02;20.60;99.90
51579;DHT22;47998;53.242;6.386;2023-07-29T09:08:28;20.70;99.90
51579;DHT22;47998;53.242;6.386;2023-07-29T09:10:54;20.90;99.90
51579;DHT22;47998;53.242;6.386;2023-07-29T09:13:21;21.00;9.80
51579;DHT22;47998;53.242;6.386;2023-07-29T09:15:47;21.60;3.30
51579;DHT22;47998;53.242;6.386;2023-07-29T09:18:17;22.10;1.00
51579;DHT22;47998;53.242;6.386;2023-07-29T09:20:43;22.50;99.90
51579;DHT22;47998;53.242;6.386;2023-07-29T09:23:10;22.20;99.90
51579;DHT22;47998;53.242;6.386;2023-07-29T09:25:36;21.80;99.90
51579;DHT22;47998;53.242;6.386;2023-07-29T09:28:11;21.60;1.00
51579;DHT22;47998;53.242;6.386;2023-07-29T09:30:41;21.80;1.00
51579;DHT22;47998;53.242;6.386;2023-07-29T09:33:08;22.30;99.90
51579;DHT22;47998;53.242;6.386;2023-07-29T09:35:36;22.10;99.90
51579;DHT22;47998;53.242;6.386;2023-07-29T09:38:03;22.50;99.90
51579;DHT22;47998;53.242;6.386;2023-07-29T09:40:39;23.00;1.00
51579;DHT22;47998;53.242;6.386;2023-07-29T09:43:07;22.90;99.90
51579;DHT22;47998;53.242;6.386;2023-07-29T09:45:37;22.80;1.00
51579;DHT22;47998;53.242;6.386;2023-07-29T09:48:04;22.50;99.90
51579;DHT22;47998;53.242;6.386;2023-07-29T09:50:35;22.40;1.00
51579;DHT22;47998;53.242;6.386;2023-07-29T09:53:02;22.20;1.00
51579;DHT22;47998;53.242;6.386;2023-07-29T09:55:28;22.00;1.00
51579;DHT22;47998;53.242;6.386;2023-07-29T09:58:01;22.10;99.90
51579;DHT22;47998;53.242;6.386;2023-07-29T10:00:30;22.20;99.90
51579;DHT22;47998;53.242;6.386;2023-07-29T10:02:57;22.50;99.90
51579;DHT22;47998;53.242;6.386;2023-07-29T10:05:26;22.50;99.90
51579;DHT22;47998;53.242;6.386;2023-07-29T10:07:54;22.70;99.90
51579;DHT22;47998;53.242;6.386;2023-07-29T10:10:20;22.60;1.00
51579;DHT22;47998;53.242;6.386;2023-07-29T10:12:50;22.40;34.20
51579;DHT22;47998;53.242;6.386;2023-07-29T10:15:15;22.10;98.40
51579;DHT22;47998;53.242;6.386;2023-07-29T10:17:41;21.90;99.90
51579;DHT22;47998;53.242;6.386;2023-07-29T10:20:09;22.10;1.00
51579;DHT22;47998;53.242;6.386;2023-07-29T10:22:47;22.70;99.90
51579;DHT22;47998;53.242;6.386;2023-07-29T10:25:17;23.40;1.00
51579;DHT22;47998;53.242;6.386;2023-07-29T10:27:48;23.90;1.00
51579;DHT22;47998;53.242;6.386;2023-07-29T10:30:15;23.80;99.90
51579;DHT22;47998;53.242;6.386;2023-07-29T10:32:45;23.90;99.90
51579;DHT22;47998;53.242;6.386;2023-07-29T10:35:14;24.10;1.00
51579;DHT22;47998;53.242;6.386;2023-07-29T10:37:40;24.00;99.90
51579;DHT22;47998;53.242;6.386;2023-07-29T10:40:08;23.20;48.50
51579;DHT22;47998;53.242;6.386;2023-07-29T10:42:34;23.00;99.90
51579;DHT22;47998;53.242;6.386;2023-07-29T10:45:02;22.50;99.90
51579;DHT22;47998;53.242;6.386;2023-07-29T10:47:42;22.10;1.00
51579;DHT22;47998;53.242;6.386;2023-07-29T10:50:17;21.70;35.40
51579;DHT22;47998;53.242;6.386;2023-07-29T10:52:43;21.40;99.90
51579;DHT22;47998;53.242;6.386;2023-07-29T10:55:29;21.30;99.90
51579;DHT22;47998;53.242;6.386;2023-07-29T10:58:22;21.00;99.90
51579;DHT22;47998;53.242;6.386;2023-07-29T11:00:49;20.80;99.90
51579;DHT22;47998;53.242;6.386;2023-07-29T11:03:15;20.60;99.90
51579;DHT22;47998;53.242;6.386;2023-07-29T11:05:50;20.50;99.90
51579;DHT22;47998;53.242;6.386;2023-07-29T11:08:30;20.30;99.90
51579;DHT22;47998;53.242;6.386;2023-07-29T11:11:06;20.20;1.00
51579;DHT22;47998;53.242;6.386;2023-07-29T11:13:33;18.90;99.90
51579;DHT22;47998;53.242;6.386;2023-07-29T11:16:00;17.90;99.90
51579;DHT22;47998;53.242;6.386;2023-07-29T11:18:32;17.40;99.90
51579;DHT22;47998;53.242;6.386;2023-07-29T11:20:59;17.40;99.90
51579;DHT22;47998;53.242;6.386;2023-07-29T11:23:43;17.60;99.90
51579;DHT22;47998;53.242;6.386;2023-07-29T11:26:09;17.70;99.90
51579;DHT22;47998;53.242;6.386;2023-07-29T11:28:38;18.10;99.90
51579;DHT22;47998;53.242;6.386;2023-07-29T11:31:05;18.40;99.90
51579;DHT22;47998;53.242;6.386;2023-07-29T11:33:31;18.90;99.90
51579;DHT22;47998;53.242;6.386;2023-07-29T11:35:57;19.50;99.90
51579;DHT22;47998;53.242;6.386;2023-07-29T11:38:23;19.90;99.90
51579;DHT22;47998;53.242;6.386;2023-07-29T11:41:00;19.60;99.90
51579;DHT22;47998;53.242;6.386;2023-07-29T11:43:28;19.70;99.90
51579;DHT22;47998;53.242;6.386;2023-07-29T11:45:54;19.90;99.90
51579;DHT22;47998;53.242;6.386;2023-07-29T11:48:32;20.00;99.90
51579;DHT22;47998;53.242;6.386;2023-07-29T11:50:58;20.10;99.90
51579;DHT22;47998;53.242;6.386;2023-07-29T11:53:28;20.10;99.90
51579;DHT22;47998;53.242;6.386;2023-07-29T11:55:55;20.00;99.90
51579;DHT22;47998;53.242;6.386;2023-07-29T11:58:21;20.00;99.90
51579;DHT22;47998;53.242;6.386;2023-07-29T12:00:47;20.00;99.90
51579;DHT22;47998;53.242;6.386;2023-07-29T12:03:14;19.90;99.90
51579;DHT22;47998;53.242;6.386;2023-07-29T12:05:41;20.00;99.90
51579;DHT22;47998;53.242;6.386;2023-07-29T12:08:08;19.80;99.90
51579;DHT22;47998;53.242;6.386;2023-07-29T12:10:34;19.50;99.90
51579;DHT22;47998;53.242;6.386;2023-07-29T12:13:02;19.20;99.90
51579;DHT22;47998;53.242;6.386;2023-07-29T12:15:29;18.60;99.90
51579;DHT22;47998;53.242;6.386;2023-07-29T12:17:59;18.10;99.90
51579;DHT22;47998;53.242;6.386;2023-07-29T12:20:25;18.20;99.90
51579;DHT22;47998;53.242;6.386;2023-07-29T12:22:55;18.50;99.90
51579;DHT22;47998;53.242;6.386;2023-07-29T12:25:22;18.80;99.90
51579;DHT22;47998;53.242;6.386;2023-07-29T12:27:48;19.10;99.90
51579;DHT22;47998;53.242;6.386;2023-07-29T12:30:13;19.70;99.90
51579;DHT22;47998;53.242;6.386;2023-07-29T12:32:46;20.50;99.90
51579;DHT22;47998;53.242;6.386;2023-07-29T12:35:12;20.80;97.50
51579;DHT22;47998;53.242;6.386;2023-07-29T12:37:38;20.70;1.00
51579;DHT22;47998;53.242;6.386;2023-07-29T12:40:29;20.60;63.50
51579;DHT22;47998;53.242;6.386;2023-07-29T12:42:54;20.30;99.90
51579;DHT22;47998;53.242;6.386;2023-07-29T12:45:20;20.30;99.90
51579;DHT22;47998;53.242;6.386;2023-07-29T12:47:48;20.10;99.90
51579;DHT22;47998;53.242;6.386;2023-07-29T12:50:14;19.90;67.60
51579;DHT22;47998;53.242;6.386;2023-07-29T12:52:39;19.90;99.90
51579;DHT22;47998;53.242;6.386;2023-07-29T12:55:06;19.90;99.90
51579;DHT22;47998;53.242;6.386;2023-07-29T12:57:35;19.90;99.90
51579;DHT22;47998;53.242;6.386;2023-07-29T13:00:01;19.80;35.40
51579;DHT22;47998;53.242;6.386;2023-07-29T13:02:27;19.80;99.90
51579;DHT22;47998;53.242;6.386;2023-07-29T13:04:53;19.90;92.10
51579;DHT22;47998;53.242;6.386;2023-07-29T13:07:18;20.20;99.90
51579;DHT22;47998;53.242;6.386;2023-07-29T13:09:44;21.10;99.90
51579;DHT22;47998;53.242;6.386;2023-07-29T13:12:10;21.70;99.90
51579;DHT22;47998;53.242;6.386;2023-07-29T13:14:35;22.10;86.20
51579;DHT22;47998;53.242;6.386;2023-07-29T13:17:01;22.20;99.90
51579;DHT22;47998;53.242;6.386;2023-07-29T13:19:27;21.70;99.90
51579;DHT22;47998;53.242;6.386;2023-07-29T13:21:52;21.10;99.90
51579;DHT22;47998;53.242;6.386;2023-07-29T13:24:18;20.70;1.00
51579;DHT22;47998;53.242;6.386;2023-07-29T13:26:44;20.60;99.90
51579;DHT22;47998;53.242;6.386;2023-07-29T13:29:09;20.70;99.90
51579;DHT22;47998;53.242;6.386;2023-07-29T13:31:35;21.20;99.90
51579;DHT22;47998;53.242;6.386;2023-07-29T13:34:01;21.70;99.90
51579;DHT22;47998;53.242;6.386;2023-07-29T13:36:26;22.20;99.90
51579;DHT22;47998;53.242;6.386;2023-07-29T13:38:52;22.20;1.00
51579;DHT22;47998;53.242;6.386;2023-07-29T13:41:18;22.20;1.00
51579;DHT22;47998;53.242;6.386;2023-07-29T13:43:43;22.10;1.00
51579;DHT22;47998;53.242;6.386;2023-07-29T13:46:09;21.80;99.90
51579;DHT22;47998;53.242;6.386;2023-07-29T13:48:35;21.20;99.90
51579;DHT22;47998;53.242;6.386;2023-07-29T13:51:01;21.10;1.00
51579;DHT22;47998;53.242;6.386;2023-07-29T13:53:27;21.40;1.00
51579;DHT22;47998;53.242;6.386;2023-07-29T13:55:52;22.00;99.90
51579;DHT22;47998;53.242;6.386;2023-07-29T13:58:18;22.40;99.90
51579;DHT22;47998;53.242;6.386;2023-07-29T14:00:44;22.10;99.90
51579;DHT22;47998;53.242;6.386;2023-07-29T14:03:09;22.20;1.00
51579;DHT22;47998;53.242;6.386;2023-07-29T14:05:35;22.00;99.90
51579;DHT22;47998;53.242;6.386;2023-07-29T14:08:01;21.60;6.50
51579;DHT22;47998;53.242;6.386;2023-07-29T14:10:26;21.80;2.10
51579;DHT22;47998;53.242;6.386;2023-07-29T14:12:52;21.90;99.90
51579;DHT22;47998;53.242;6.386;2023-07-29T14:15:18;21.90;1.00
51579;DHT22;47998;53.242;6.386;2023-07-29T14:17:44;22.40;99.90
51579;DHT22;47998;53.242;6.386;2023-07-29T14:20:10;22.30;1.00
51579;DHT22;47998;53.242;6.386;2023-07-29T14:22:36;22.00;99.90
51579;DHT22;47998;53.242;6.386;2023-07-29T14:25:01;22.20;1.00
51579;DHT22;47998;53.242;6.386;2023-07-29T14:27:27;22.30;99.90
51579;DHT22;47998;53.242;6.386;2023-07-29T14:29:53;22.50;99.90
51579;DHT22;47998;53.242;6.386;2023-07-29T14:32:19;22.50;95.20
51579;DHT22;47998;53.242;6.386;2023-07-29T14:34:44;22.50;1.00
51579;DHT22;47998;53.242;6.386;2023-07-29T14:37:10;22.60;99.90
51579;DHT22;47998;53.242;6.386;2023-07-29T14:39:36;22.80;99.90
51579;DHT22;47998;53.242;6.386;2023-07-29T14:42:02;22.90;1.00
51579;DHT22;47998;53.242;6.386;2023-07-29T14:44:27;22.50;99.90
51579;DHT22;47998;53.242;6.386;2023-07-29T14:46:53;21.80;99.90
51579;DHT22;47998;53.242;6.386;2023-07-29T14:49:20;21.90;1.00
51579;DHT22;47998;53.242;6.386;2023-07-29T14:51:45;22.00;99.90
51579;DHT22;47998;53.242;6.386;2023-07-29T14:54:11;22.30;99.90
51579;DHT22;47998;53.242;6.386;2023-07-29T14:56:37;22.40;99.90
51579;DHT22;47998;53.242;6.386;2023-07-29T14:59:02;22.20;99.90
51579;DHT22;47998;53.242;6.386;2023-07-29T15:01:28;21.90;99.90
51579;DHT22;47998;53.242;6.386;2023-07-29T15:03:54;22.10;99.90
51579;DHT22;47998;53.242;6.386;2023-07-29T15:06:19;22.30;99.90
51579;DHT22;47998;53.242;6.386;2023-07-29T15:08:48;22.20;99.90
51579;DHT22;47998;53.242;6.386;2023-07-29T15:11:16;21.80;1.00
51579;DHT22;47998;53.242;6.386;2023-07-29T15:13:41;21.70;99.90
51579;DHT22;47998;53.242;6.386;2023-07-29T15:16:07;21.80;1.00
51579;DHT22;47998;53.242;6.386;2023-07-29T15:18:33;21.90;48.80
51579;DHT22;47998;53.242;6.386;2023-07-29T15:21:01;21.80;99.90
51579;DHT22;47998;53.242;6.386;2023-07-29T15:23:28;21.40;92.40
51579;DHT22;47998;53.242;6.386;2023-07-29T15:25:56;21.20;99.90
51579;DHT22;47998;53.242;6.386;2023-07-29T15:28:22;21.10;99.90
51579;DHT22;47998;53.242;6.386;2023-07-29T15:30:47;21.30;99.90
51579;DHT22;47998;53.242;6.386;2023-07-29T15:33:13;21.90;15.50
51579;DHT22;47998;53.242;6.386;2023-07-29T15:35:39;21.90;99.90
51579;DHT22;47998;53.242;6.386;2023-07-29T15:38:06;21.80;99.90